Time;durP1;ratioP1;P1;durP2;ratioP2;P2;SDS_P1;SDS_P2;PMS_P1;PMS_P2;Temp;Humidity;BMP_temperature;BMP_pressure;BME280_temperature;BME280_humidity;BME280_pressure;Samples;Min_cycle;Max_cycle;Signal;HPM_P1;HPM_P2
2023/11/30 10:04:35;;;;;;;16.50;3.83;;;4.00;99.90;;;;;;3808445;23;20342;-75
2023/11/30 10:07:03;;;;;;;13.00;3.33;;;4.10;99.90;;;;;;4957350;28;20214;-74
2023/11/30 10:09:30;;;;;;;7.73;3.83;;;4.10;99.90;;;;;;4958183;28;20208;-74
2023/11/30 10:11:58;;;;;;;10.37;2.90;;;4.20;99.90;;;;;;4956996;28;20232;-74
2023/11/30 10:14:26;;;;;;;13.47;3.27;;;4.20;99.90;;;;;;4955006;28;20289;-74
2023/11/30 10:16:53;;;;;;;12.87;2.90;;;4.30;99.90;;;;;;4953793;28;20287;-74
2023/11/30 10:19:20;;;;;;;12.43;3.00;;;4.10;99.90;;;;;;4957564;28;20224;-74
2023/11/30 10:21:49;;;;;;;9.83;2.67;;;3.90;99.90;;;;;;4954639;28;20240;-75
2023/11/30 10:24:16;;;;;;;8.20;3.07;;;3.80;99.90;;;;;;4951588;28;20214;-75
2023/11/30 10:26:46;;;;;;;20.40;2.97;;;3.80;99.90;;;;;;4950827;28;20245;-74
2023/11/30 10:29:20;;;;;;;5.13;2.60;;;3.90;99.90;;;;;;4956286;28;20227;-75
2023/11/30 10:31:50;;;;;;;12.70;2.87;;;3.70;99.90;;;;;;4957400;28;20227;-74
2023/11/30 10:34:22;;;;;;;11.63;2.77;;;3.90;99.90;;;;;;4957197;28;20251;-74
2023/11/30 10:36:52;;;;;;;18.50;2.90;;;4.20;99.90;;;;;;4952235;28;20297;-74
2023/11/30 10:39:23;;;;;;;11.43;2.90;;;4.50;99.90;;;;;;4953833;28;20212;-72
2023/11/30 10:41:52;;;;;;;6.60;3.00;;;4.50;99.90;;;;;;4949177;28;20694;-73
2023/11/30 10:44:26;;;;;;;13.03;3.03;;;4.40;99.90;;;;;;4965869;28;20212;-74
2023/11/30 10:46:55;;;;;;;8.43;3.40;;;4.50;99.90;;;;;;4940510;28;20259;-75
2023/11/30 10:49:24;;;;;;;7.87;3.23;;;4.70;99.90;;;;;;4947694;28;20240;-76
2023/11/30 10:51:55;;;;;;;7.00;2.40;;;4.80;99.90;;;;;;4956902;28;20228;-74
2023/11/30 10:54:31;;;;;;;9.70;2.87;;;4.90;99.90;;;;;;4952406;28;20275;-74
2023/11/30 10:57:00;;;;;;;12.00;3.57;;;4.60;99.90;;;;;;4952485;28;20243;-75
2023/11/30 10:59:30;;;;;;;9.40;2.90;;;4.40;99.90;;;;;;4956303;28;20299;-75
2023/11/30 11:01:58;;;;;;;14.53;3.60;;;4.60;99.90;;;;;;4955770;28;20228;-75
2023/11/30 11:04:27;;;;;;;7.87;2.70;;;4.50;99.90;;;;;;4955729;28;20239;-74
2023/11/30 11:07:03;;;;;;;8.90;3.13;;;4.60;99.90;;;;;;4955966;28;20208;-75
2023/11/30 11:09:41;;;;;;;6.87;2.67;;;4.50;99.90;;;;;;4955938;28;20655;-75
2023/11/30 11:12:18;;;;;;;7.53;2.73;;;4.50;99.90;;;;;;4955410;28;20234;-74
2023/11/30 11:14:46;;;;;;;6.10;2.57;;;4.60;99.90;;;;;;4954918;28;20327;-75
2023/11/30 11:17:13;;;;;;;6.87;2.77;;;4.60;99.90;;;;;;4955265;28;20579;-75
2023/11/30 11:19:42;;;;;;;6.93;2.60;;;4.50;99.90;;;;;;4955320;28;20941;-75
2023/11/30 11:22:21;;;;;;;4.87;2.60;;;4.30;99.90;;;;;;4955736;28;20256;-74
2023/11/30 11:24:49;;;;;;;11.20;2.80;;;4.40;99.90;;;;;;4952156;28;20579;-74
2023/11/30 11:27:28;;;;;;;8.77;3.20;;;4.70;99.90;;;;;;4952698;28;20243;-74
2023/11/30 11:29:57;;;;;;;8.73;3.27;;;4.90;99.90;;;;;;4955745;28;20540;-74
2023/11/30 11:32:26;;;;;;;12.70;3.63;;;4.90;99.90;;;;;;4955600;28;20631;-75
2023/11/30 11:34:53;;;;;;;11.37;3.07;;;5.10;99.90;;;;;;4955050;28;20607;-75
2023/11/30 11:37:22;;;;;;;9.83;3.47;;;4.80;99.90;;;;;;4955205;28;20567;-76
2023/11/30 11:39:51;;;;;;;17.63;3.20;;;4.70;99.90;;;;;;4955222;28;20563;-76
2023/11/30 11:42:18;;;;;;;9.37;3.63;;;4.80;99.90;;;;;;4955226;28;20251;-75
2023/11/30 11:44:46;;;;;;;14.50;3.67;;;4.80;99.90;;;;;;4955233;28;20204;-76
2023/11/30 11:47:13;;;;;;;10.33;3.30;;;4.90;99.90;;;;;;4955362;28;20246;-75
2023/11/30 11:49:41;;;;;;;10.63;3.33;;;4.80;99.90;;;;;;4955588;28;20275;-76
2023/11/30 11:52:08;;;;;;;9.50;3.60;;;4.70;99.90;;;;;;4956677;28;20228;-76
2023/11/30 11:54:37;;;;;;;7.90;3.10;;;4.80;99.90;;;;;;4956229;28;20233;-76
2023/11/30 11:57:04;;;;;;;8.03;3.20;;;4.90;99.90;;;;;;4955046;28;20230;-76
2023/11/30 11:59:32;;;;;;;9.07;3.27;;;4.60;99.90;;;;;;4951191;28;20216;-76
2023/11/30 12:02:00;;;;;;;13.23;4.00;;;4.60;99.90;;;;;;4953048;28;20283;-76
2023/11/30 12:04:31;;;;;;;9.37;3.50;;;4.70;99.90;;;;;;4954530;28;20215;-75
2023/11/30 12:06:58;;;;;;;8.80;3.63;;;4.90;99.90;;;;;;4954705;28;20208;-76
2023/11/30 12:09:26;;;;;;;10.50;3.97;;;4.80;99.90;;;;;;4954697;28;20732;-76
2023/11/30 12:11:56;;;;;;;11.37;3.90;;;4.90;99.90;;;;;;4954910;28;20318;-76
2023/11/30 12:14:24;;;;;;;10.77;3.13;;;4.70;99.90;;;;;;4954460;28;20224;-76
2023/11/30 12:16:51;;;;;;;8.87;3.43;;;4.60;99.90;;;;;;4954992;28;20303;-76
2023/11/30 12:19:19;;;;;;;8.30;3.83;;;4.50;99.90;;;;;;4955177;28;20579;-77
2023/11/30 12:21:46;;;;;;;9.00;3.50;;;4.80;99.90;;;;;;4954528;28;20232;-77
2023/11/30 12:24:14;;;;;;;7.40;2.93;;;5.00;99.90;;;;;;4954783;28;20229;-77
2023/11/30 12:26:41;;;;;;;10.97;3.97;;;5.30;99.90;;;;;;4954798;28;20234;-77
2023/11/30 12:29:10;;;;;;;10.33;3.70;;;5.30;99.90;;;;;;4954927;28;20576;-77
2023/11/30 12:31:37;;;;;;;10.27;3.47;;;5.30;99.90;;;;;;4954508;28;20224;-77
2023/11/30 12:34:04;;;;;;;10.67;4.30;;;5.10;99.90;;;;;;4944569;28;20212;-77
2023/11/30 12:36:31;;;;;;;8.33;3.50;;;5.20;99.90;;;;;;4950270;28;20211;-77
2023/11/30 12:38:58;;;;;;;11.23;3.70;;;5.00;99.90;;;;;;4954425;28;20243;-77
2023/11/30 12:41:25;;;;;;;7.80;3.03;;;5.10;99.90;;;;;;4954624;28;20704;-77
2023/11/30 12:43:53;;;;;;;7.70;3.10;;;5.00;99.90;;;;;;4952861;28;20674;-77
2023/11/30 12:46:21;;;;;;;11.03;4.10;;;5.00;99.90;;;;;;4955111;28;20254;-77
2023/11/30 12:48:48;;;;;;;9.33;3.27;;;5.10;99.90;;;;;;4953461;28;20303;-78
2023/11/30 12:51:16;;;;;;;14.57;3.87;;;5.10;99.90;;;;;;4954000;28;20232;-77
2023/11/30 12:53:43;;;;;;;10.87;4.23;;;4.90;99.90;;;;;;4954742;28;20208;-77
2023/11/30 12:56:12;;;;;;;8.53;3.23;;;5.20;99.90;;;;;;4954910;28;20236;-77
2023/11/30 12:58:39;;;;;;;6.13;2.53;;;5.10;99.90;;;;;;4954691;28;20215;-76
2023/11/30 13:01:07;;;;;;;8.23;3.47;;;5.00;99.90;;;;;;4954862;28;20204;-73
2023/11/30 13:03:35;;;;;;;7.47;2.67;;;4.80;99.90;;;;;;4955427;28;20212;-76
2023/11/30 13:06:03;;;;;;;7.40;3.43;;;4.90;99.90;;;;;;4958614;28;20219;-77
2023/11/30 13:08:30;;;;;;;6.60;2.87;;;5.10;99.90;;;;;;4958837;28;20307;-77
2023/11/30 13:10:58;;;;;;;6.07;2.70;;;5.10;99.90;;;;;;4958514;28;20216;-77
2023/11/30 13:13:26;;;;;;;8.77;2.83;;;5.20;99.90;;;;;;4958630;28;20212;-77
2023/11/30 13:15:55;;;;;;;6.20;2.47;;;5.30;99.90;;;;;;4958523;28;20314;-77
2023/11/30 13:18:22;;;;;;;9.37;2.80;;;5.20;99.90;;;;;;4958266;28;20239;-76
2023/11/30 13:20:51;;;;;;;7.23;2.83;;;5.10;99.90;;;;;;4958309;28;20208;-76
2023/11/30 13:23:18;;;;;;;5.87;2.40;;;5.20;99.90;;;;;;4958411;28;20302;-77
2023/11/30 13:25:45;;;;;;;6.80;2.37;;;5.30;99.90;;;;;;4958510;28;20291;-76
2023/11/30 13:28:13;;;;;;;8.30;3.03;;;5.20;99.90;;;;;;4958398;28;20308;-77
2023/11/30 13:30:41;;;;;;;6.60;3.07;;;5.10;99.90;;;;;;4958252;28;20212;-77
2023/11/30 13:33:08;;;;;;;10.73;2.97;;;5.00;99.90;;;;;;4958357;28;20228;-77
2023/11/30 13:35:35;;;;;;;9.20;2.60;;;5.00;99.90;;;;;;4958168;28;20337;-77
2023/11/30 13:38:04;;;;;;;11.03;3.87;;;4.90;99.90;;;;;;4958050;28;20236;-77
2023/11/30 13:40:33;;;;;;;12.70;3.37;;;5.00;99.90;;;;;;4958040;28;20302;-77
2023/11/30 13:43:00;;;;;;;6.57;3.10;;;5.00;99.90;;;;;;4958216;28;20687;-77
2023/11/30 13:45:28;;;;;;;7.83;2.73;;;5.20;99.90;;;;;;4952637;28;20236;-75
2023/11/30 13:47:55;;;;;;;8.00;2.43;;;5.40;99.90;;;;;;4958010;28;20240;-75
2023/11/30 13:50:23;;;;;;;10.63;3.07;;;5.20;99.90;;;;;;4948280;28;20205;-77
2023/11/30 13:52:50;;;;;;;7.67;3.23;;;4.80;99.90;;;;;;4956190;28;20311;-77
2023/11/30 13:55:19;;;;;;;10.93;2.80;;;4.90;99.90;;;;;;4957340;28;20779;-75
2023/11/30 13:57:46;;;;;;;8.07;2.27;;;4.90;99.90;;;;;;4957943;28;20244;-77
2023/11/30 14:00:14;;;;;;;9.97;2.90;;;5.10;99.90;;;;;;4950565;28;20279;-77
2023/11/30 14:02:42;;;;;;;8.50;3.70;;;5.20;99.90;;;;;;4938385;29;20235;-77
2023/11/30 14:05:09;;;;;;;9.03;3.00;;;5.20;99.90;;;;;;4950124;28;20213;-76
2023/11/30 14:07:37;;;;;;;7.37;2.53;;;5.10;99.90;;;;;;4938811;29;20208;-75
2023/11/30 14:10:07;;;;;;;6.83;2.93;;;5.00;99.90;;;;;;4938240;29;20201;-75
2023/11/30 14:12:37;;;;;;;7.27;2.50;;;5.00;99.90;;;;;;4938577;29;20225;-75
2023/11/30 14:15:08;;;;;;;7.63;2.33;;;4.90;99.90;;;;;;4943704;28;20231;-76
2023/11/30 14:17:35;;;;;;;9.23;2.90;;;4.90;99.90;;;;;;4957238;28;20290;-75
2023/11/30 14:20:05;;;;;;;5.83;2.50;;;4.90;99.90;;;;;;4953887;28;20235;-75
2023/11/30 14:22:32;;;;;;;8.20;2.30;;;4.90;99.90;;;;;;4974735;28;20237;-75
2023/11/30 14:24:59;;;;;;;10.80;3.10;;;4.80;99.90;;;;;;4963747;28;20271;-76
2023/11/30 14:27:27;;;;;;;6.43;2.80;;;4.60;99.90;;;;;;4952324;28;20204;-75
2023/11/30 14:29:56;;;;;;;11.77;3.70;;;4.60;99.90;;;;;;4957524;28;20208;-76
2023/11/30 14:32:23;;;;;;;16.83;4.63;;;4.70;99.90;;;;;;4958457;28;20227;-76
2023/11/30 14:34:50;;;;;;;15.63;4.67;;;4.90;99.90;;;;;;4956276;28;20215;-75
2023/11/30 14:37:19;;;;;;;7.33;3.03;;;5.00;99.90;;;;;;4936971;29;20220;-77
2023/11/30 14:39:46;;;;;;;13.03;2.90;;;4.90;99.90;;;;;;4939491;28;20219;-76
2023/11/30 14:42:13;;;;;;;11.00;3.03;;;4.80;99.90;;;;;;4954850;28;20706;-77
2023/11/30 14:44:41;;;;;;;5.53;2.57;;;4.80;99.90;;;;;;4952808;28;20259;-77
2023/11/30 14:47:10;;;;;;;9.33;2.53;;;4.80;99.90;;;;;;4934932;29;20324;-75
2023/11/30 14:49:37;;;;;;;9.53;2.77;;;4.80;99.90;;;;;;4936385;28;20213;-76
2023/11/30 14:52:05;;;;;;;9.20;2.90;;;4.50;99.90;;;;;;4953516;28;20227;-79
2023/11/30 14:54:33;;;;;;;11.20;2.80;;;4.50;99.90;;;;;;4956787;28;20222;-76
2023/11/30 14:57:00;;;;;;;9.47;2.63;;;4.50;99.90;;;;;;4938216;28;20674;-76
2023/11/30 14:59:28;;;;;;;10.17;2.87;;;4.40;99.90;;;;;;4937834;29;20292;-78
2023/11/30 15:01:55;;;;;;;8.23;2.93;;;4.30;99.90;;;;;;4938127;29;20340;-76
2023/11/30 15:04:23;;;;;;;11.37;2.77;;;4.30;99.90;;;;;;4937689;29;20212;-78
2023/11/30 15:06:50;;;;;;;10.87;3.33;;;4.20;99.90;;;;;;4937412;29;20219;-77
2023/11/30 15:09:17;;;;;;;11.40;3.30;;;4.10;99.90;;;;;;4937092;28;20213;-77
2023/11/30 15:11:45;;;;;;;11.23;4.13;;;4.10;99.90;;;;;;4937222;29;20229;-78
2023/11/30 15:14:12;;;;;;;13.93;3.27;;;4.00;99.90;;;;;;4936190;29;20236;-76
2023/11/30 15:16:40;;;;;;;8.37;3.13;;;3.90;99.90;;;;;;4937372;29;20275;-77
2023/11/30 15:19:09;;;;;;;12.53;2.77;;;4.00;99.90;;;;;;4937541;29;20265;-77
2023/11/30 15:21:38;;;;;;;12.20;2.70;;;4.00;99.90;;;;;;4937350;29;20224;-77
2023/11/30 15:24:06;;;;;;;9.77;2.70;;;4.10;99.90;;;;;;4937616;29;20291;-77
2023/11/30 15:26:33;;;;;;;11.70;3.97;;;3.80;99.90;;;;;;4937324;29;20573;-77
2023/11/30 15:29:00;;;;;;;14.37;3.03;;;3.80;99.90;;;;;;4937708;29;20219;-77
2023/11/30 15:31:27;;;;;;;9.37;2.80;;;3.90;99.90;;;;;;4937321;28;20284;-77
2023/11/30 15:33:56;;;;;;;11.03;3.30;;;4.00;99.90;;;;;;4937357;29;20213;-76
2023/11/30 15:36:23;;;;;;;9.30;3.00;;;4.10;99.90;;;;;;4937252;29;20236;-78
